createdAt,value
2022-11-29T00:01:34.232Z,6.10
2022-11-29T00:04:02.953Z,6.10
2022-11-29T00:06:32.850Z,6.10
2022-11-29T00:09:02.908Z,6.10
2022-11-29T00:11:52.619Z,6.10
2022-11-29T00:14:21.288Z,6.10
2022-11-29T00:16:52.860Z,6.10
2022-11-29T00:19:21.141Z,6.10
2022-11-29T00:21:49.359Z,6.10
2022-11-29T00:24:17.392Z,6.10
2022-11-29T00:26:46.730Z,6.10
2022-11-29T00:29:14.815Z,6.10
2022-11-29T00:31:43.069Z,6.10
2022-11-29T00:34:12.640Z,6.10
2022-11-29T00:36:40.970Z,6.00
2022-11-29T00:39:11.803Z,6.00
2022-11-29T00:41:40.648Z,6.10
2022-11-29T00:44:14.001Z,6.10
2022-11-29T00:46:44.855Z,6.00
2022-11-29T00:49:12.845Z,6.00
2022-11-29T00:51:40.946Z,6.00
2022-11-29T00:54:08.792Z,6.00
2022-11-29T00:56:36.880Z,6.00
2022-11-29T00:59:04.847Z,6.00
2022-11-29T01:01:34.381Z,6.00
2022-11-29T01:04:02.782Z,6.00
2022-11-29T01:06:31.097Z,6.00
2022-11-29T01:08:59.062Z,6.00
2022-11-29T01:11:29.008Z,6.00
2022-11-29T01:13:58.993Z,6.00
2022-11-29T01:16:27.802Z,6.00
2022-11-29T01:18:57.717Z,6.10
2022-11-29T01:21:25.917Z,6.00
2022-11-29T01:23:55.138Z,6.00
2022-11-29T01:26:25.592Z,6.00
2022-11-29T01:28:55.791Z,6.00
2022-11-29T01:31:25.273Z,6.00
2022-11-29T01:33:54.882Z,6.00
2022-11-29T01:36:24.519Z,6.00
2022-11-29T01:38:52.847Z,6.00
2022-11-29T01:41:23.917Z,6.00
2022-11-29T01:44:03.462Z,6.00
2022-11-29T01:46:33.913Z,6.00
2022-11-29T01:49:08.582Z,6.00
2022-11-29T01:51:42.044Z,6.00
2022-11-29T01:54:11.851Z,6.00
2022-11-29T01:56:40.374Z,6.00
2022-11-29T01:59:13.006Z,6.00
2022-11-29T02:01:40.819Z,5.90
2022-11-29T02:04:09.807Z,6.00
2022-11-29T02:06:40.802Z,6.00
2022-11-29T02:09:19.092Z,6.00
2022-11-29T02:12:16.585Z,6.00
2022-11-29T02:15:07.167Z,6.00
2022-11-29T02:17:47.373Z,6.00
2022-11-29T02:21:03.731Z,5.90
2022-11-29T02:23:52.407Z,5.90
2022-11-29T02:26:37.364Z,5.90
2022-11-29T02:29:48.287Z,6.00
2022-11-29T02:32:51.716Z,5.90
2022-11-29T02:35:37.252Z,5.90
2022-11-29T02:38:21.780Z,5.90
2022-11-29T02:41:14.421Z,5.90
2022-11-29T02:44:17.521Z,5.90
2022-11-29T02:46:56.429Z,5.90
2022-11-29T02:49:42.766Z,6.00
2022-11-29T02:52:17.800Z,6.00
2022-11-29T02:54:52.070Z,5.90
2022-11-29T02:57:27.033Z,5.90
2022-11-29T03:00:02.892Z,5.90
2022-11-29T03:02:36.782Z,5.90
2022-11-29T03:05:13.812Z,5.90
2022-11-29T03:07:52.719Z,5.90
2022-11-29T03:10:31.605Z,5.90
2022-11-29T03:13:00.797Z,5.90
2022-11-29T03:15:32.102Z,5.90
2022-11-29T03:18:14.473Z,5.90
2022-11-29T03:20:58.521Z,5.90
2022-11-29T03:23:34.229Z,5.90
2022-11-29T03:26:06.634Z,5.90
2022-11-29T03:28:40.197Z,5.90
2022-11-29T03:31:14.646Z,5.90
2022-11-29T03:33:52.433Z,5.90
2022-11-29T03:36:30.335Z,5.90
2022-11-29T03:39:04.305Z,5.90
2022-11-29T03:41:38.873Z,6.00
2022-11-29T03:44:14.061Z,5.90
2022-11-29T03:46:49.000Z,5.90
2022-11-29T03:49:22.877Z,5.90
2022-11-29T03:52:00.929Z,5.90
2022-11-29T03:54:38.941Z,5.90
2022-11-29T03:57:10.325Z,5.90
2022-11-29T03:59:52.900Z,5.90
2022-11-29T04:02:58.513Z,6.00
2022-11-29T04:06:04.945Z,5.90
2022-11-29T04:08:52.803Z,5.90
2022-11-29T04:11:59.138Z,5.90
2022-11-29T04:14:50.918Z,5.90
2022-11-29T04:17:49.835Z,5.90
2022-11-29T04:20:47.983Z,5.90
2022-11-29T04:23:46.453Z,5.90
2022-11-29T04:26:55.279Z,5.90
2022-11-29T04:29:46.271Z,5.90
2022-11-29T04:32:49.238Z,5.90
2022-11-29T04:35:33.955Z,5.90
2022-11-29T04:38:18.472Z,5.90
2022-11-29T04:41:03.441Z,5.90
2022-11-29T04:44:09.958Z,5.90
2022-11-29T04:47:06.172Z,5.90
2022-11-29T04:49:54.684Z,5.90
2022-11-29T04:52:50.820Z,5.90
2022-11-29T04:55:44.015Z,5.90
2022-11-29T04:58:23.051Z,5.90
2022-11-29T05:01:01.486Z,5.80
2022-11-29T05:03:39.459Z,5.80
2022-11-29T05:06:20.280Z,5.80
2022-11-29T05:09:01.253Z,5.80
2022-11-29T05:11:44.511Z,5.80
2022-11-29T05:14:20.848Z,5.80
2022-11-29T05:16:57.902Z,5.80
2022-11-29T05:19:49.486Z,5.80
2022-11-29T05:22:31.755Z,5.80
2022-11-29T05:25:15.416Z,5.80
2022-11-29T05:27:48.297Z,5.80
2022-11-29T05:30:20.361Z,5.90
2022-11-29T05:33:05.567Z,5.90
2022-11-29T05:35:53.819Z,5.80
2022-11-29T05:38:52.802Z,5.80
2022-11-29T05:41:44.133Z,5.80
2022-11-29T05:44:17.869Z,5.80
2022-11-29T05:46:55.576Z,5.80
2022-11-29T05:49:35.324Z,5.80
2022-11-29T05:52:24.338Z,5.80
2022-11-29T05:55:10.268Z,5.80
2022-11-29T05:57:44.665Z,5.80
2022-11-29T06:00:14.856Z,5.80
2022-11-29T06:02:52.435Z,5.80
2022-11-29T06:05:29.891Z,5.80
2022-11-29T06:08:03.842Z,5.80
2022-11-29T06:10:34.742Z,5.80
2022-11-29T06:13:18.837Z,5.80
2022-11-29T06:16:08.896Z,5.80
2022-11-29T06:18:50.113Z,5.80
2022-11-29T06:21:27.472Z,5.80
2022-11-29T06:24:21.812Z,5.80
2022-11-29T06:27:13.150Z,5.80
2022-11-29T06:29:48.517Z,5.80
2022-11-29T06:32:30.812Z,5.80
2022-11-29T06:35:04.287Z,5.80
2022-11-29T06:37:38.799Z,5.80
2022-11-29T06:40:10.735Z,5.80
2022-11-29T06:42:38.991Z,5.80
2022-11-29T06:45:08.443Z,5.80
2022-11-29T06:47:43.364Z,5.80
2022-11-29T06:50:26.720Z,5.90
2022-11-29T06:53:08.233Z,5.90
2022-11-29T06:55:47.636Z,5.80
2022-11-29T06:58:42.695Z,5.80
2022-11-29T07:01:21.069Z,5.80
2022-11-29T07:04:03.341Z,5.80
2022-11-29T07:06:32.845Z,5.80
2022-11-29T07:09:05.356Z,5.80
2022-11-29T07:11:34.205Z,5.90
2022-11-29T07:14:02.662Z,5.90
2022-11-29T07:16:36.171Z,5.90
2022-11-29T07:19:13.728Z,5.90
2022-11-29T07:21:53.332Z,5.90
2022-11-29T07:24:35.066Z,5.90
2022-11-29T07:27:12.256Z,5.90
2022-11-29T07:29:51.272Z,6.00
2022-11-29T07:32:28.073Z,5.90
2022-11-29T07:35:05.259Z,5.90
2022-11-29T07:37:40.805Z,5.90
2022-11-29T07:40:15.740Z,5.90
2022-11-29T07:42:55.321Z,6.00
2022-11-29T07:45:28.679Z,6.00
2022-11-29T07:47:56.820Z,6.00
2022-11-29T07:50:26.280Z,6.00
2022-11-29T07:52:55.783Z,6.00
2022-11-29T07:55:26.954Z,6.00
2022-11-29T07:57:55.235Z,6.00
2022-11-29T08:00:23.869Z,6.00
2022-11-29T08:02:52.700Z,6.00
2022-11-29T08:05:20.848Z,6.00
2022-11-29T08:07:49.304Z,6.00
2022-11-29T08:10:18.311Z,6.00
2022-11-29T08:12:50.033Z,6.00
2022-11-29T08:15:19.228Z,6.10
2022-11-29T08:17:47.268Z,6.10
2022-11-29T08:20:16.571Z,6.10
2022-11-29T08:22:44.650Z,6.10
2022-11-29T08:25:13.395Z,6.10
2022-11-29T08:27:41.272Z,6.10
2022-11-29T08:30:11.284Z,6.10
2022-11-29T08:32:39.233Z,6.10
2022-11-29T08:35:07.549Z,6.10
2022-11-29T08:37:40.539Z,6.10
2022-11-29T08:40:13.596Z,6.10
2022-11-29T08:42:41.633Z,6.10
2022-11-29T08:45:13.136Z,6.20
2022-11-29T08:47:42.343Z,6.20
2022-11-29T08:50:14.536Z,6.20
2022-11-29T08:53:01.917Z,6.20
2022-11-29T08:55:34.634Z,6.20
2022-11-29T08:58:03.275Z,6.20
2022-11-29T09:00:33.369Z,6.20
2022-11-29T09:03:16.769Z,6.20
2022-11-29T09:05:45.167Z,6.20
2022-11-29T09:08:13.186Z,6.20
2022-11-29T09:10:41.487Z,6.20
2022-11-29T09:13:10.590Z,6.30
2022-11-29T09:15:39.984Z,6.20
2022-11-29T09:18:07.971Z,6.20
2022-11-29T09:20:36.293Z,6.20
2022-11-29T09:23:04.360Z,6.30
2022-11-29T09:25:32.417Z,6.30
2022-11-29T09:28:02.888Z,6.20
2022-11-29T09:30:31.625Z,6.30
2022-11-29T09:33:03.908Z,6.30
2022-11-29T09:35:32.327Z,6.20
2022-11-29T09:38:00.336Z,6.30
2022-11-29T09:40:33.783Z,6.30
2022-11-29T09:43:07.363Z,6.30
2022-11-29T09:45:42.488Z,6.30
2022-11-29T09:48:44.866Z,6.40
2022-11-29T09:51:24.210Z,6.40
2022-11-29T09:54:12.142Z,6.40
2022-11-29T09:56:43.137Z,6.40
2022-11-29T09:59:15.470Z,6.50
2022-11-29T10:01:48.408Z,6.50
2022-11-29T10:04:21.138Z,6.50
2022-11-29T10:06:57.972Z,6.50
2022-11-29T10:09:33.928Z,6.40
2022-11-29T10:12:12.601Z,6.40
2022-11-29T10:14:47.242Z,6.50
2022-11-29T10:17:26.042Z,6.50
2022-11-29T10:19:58.682Z,6.50
2022-11-29T10:22:32.054Z,6.50
2022-11-29T10:25:03.246Z,6.50
2022-11-29T10:27:31.327Z,6.50
2022-11-29T10:30:02.425Z,6.50
2022-11-29T10:32:32.414Z,6.50
2022-11-29T10:35:01.906Z,6.50
2022-11-29T10:37:32.646Z,6.60
2022-11-29T10:40:04.567Z,6.60
2022-11-29T10:42:53.037Z,6.50
2022-11-29T10:45:28.033Z,6.50
2022-11-29T10:47:59.658Z,6.50
2022-11-29T10:50:32.112Z,6.50
2022-11-29T10:53:05.834Z,6.50
2022-11-29T10:55:41.281Z,6.50
2022-11-29T10:58:13.393Z,6.50
2022-11-29T11:00:52.937Z,6.50
2022-11-29T11:03:32.641Z,6.50
2022-11-29T11:06:05.254Z,6.50
2022-11-29T11:08:33.764Z,6.50
2022-11-29T11:11:02.892Z,6.50
2022-11-29T11:13:32.941Z,6.50
2022-11-29T11:16:11.347Z,6.50
2022-11-29T11:18:39.944Z,6.50
2022-11-29T11:21:13.092Z,6.60
2022-11-29T11:23:47.569Z,6.60
2022-11-29T11:26:16.219Z,6.60
2022-11-29T11:28:51.052Z,6.60
2022-11-29T11:31:29.072Z,6.60
2022-11-29T11:33:57.267Z,6.60
2022-11-29T11:36:28.292Z,6.50
2022-11-29T11:38:58.150Z,6.50
2022-11-29T11:41:49.500Z,6.50
2022-11-29T11:47:19.540Z,6.50
2022-11-29T11:49:50.368Z,6.50
2022-11-29T11:52:22.914Z,6.50
2022-11-29T11:54:53.083Z,6.50
2022-11-29T11:57:22.897Z,6.60
2022-11-29T11:59:52.166Z,6.60
2022-11-29T12:02:27.465Z,6.70
2022-11-29T12:04:58.202Z,6.70
2022-11-29T12:08:05.715Z,6.60
2022-11-29T12:10:24.837Z,6.70
2022-11-29T12:12:54.466Z,6.70
2022-11-29T12:15:28.074Z,6.70
2022-11-29T12:18:02.973Z,6.70
2022-11-29T12:20:37.652Z,6.60
2022-11-29T12:23:22.863Z,6.70
2022-11-29T12:25:55.732Z,6.70
2022-11-29T12:28:28.933Z,6.70
2022-11-29T12:31:07.317Z,6.60
2022-11-29T12:33:44.682Z,6.70
2022-11-29T12:36:25.272Z,6.70
2022-11-29T12:39:09.129Z,6.70
2022-11-29T12:41:52.425Z,6.60
2022-11-29T12:44:32.531Z,6.60
2022-11-29T12:47:34.600Z,6.70
2022-11-29T12:50:08.541Z,6.70
2022-11-29T12:52:46.421Z,6.60
2022-11-29T12:55:24.313Z,6.70
2022-11-29T12:58:01.852Z,6.70
2022-11-29T13:00:35.763Z,6.60
2022-11-29T13:03:13.318Z,6.60
2022-11-29T13:05:52.360Z,6.70
2022-11-29T13:08:45.723Z,6.70
2022-11-29T13:11:19.996Z,6.70
2022-11-29T13:13:51.542Z,6.70
2022-11-29T13:16:32.778Z,6.70
2022-11-29T13:19:09.395Z,6.70
2022-11-29T13:21:44.151Z,6.70
2022-11-29T13:24:18.271Z,6.70
2022-11-29T13:26:48.196Z,6.60
2022-11-29T13:29:19.189Z,6.70
2022-11-29T13:31:48.401Z,6.60
2022-11-29T13:34:20.840Z,6.60
2022-11-29T13:37:00.456Z,6.60
2022-11-29T13:39:41.929Z,6.60
2022-11-29T13:42:18.541Z,6.60
2022-11-29T13:44:51.653Z,6.60
2022-11-29T13:47:20.824Z,6.60
2022-11-29T13:49:54.558Z,6.60
2022-11-29T13:52:44.145Z,6.70
2022-11-29T13:55:29.063Z,6.80
2022-11-29T13:58:20.931Z,6.60
2022-11-29T14:00:52.767Z,6.60
2022-11-29T14:03:33.618Z,6.50
2022-11-29T14:06:18.501Z,6.60
2022-11-29T14:09:18.338Z,6.60
2022-11-29T14:11:50.571Z,6.60
2022-11-29T14:14:27.048Z,6.60
2022-11-29T14:16:59.579Z,6.60
2022-11-29T14:19:33.379Z,6.60
2022-11-29T14:22:22.401Z,6.60
2022-11-29T14:25:49.827Z,6.50
2022-11-29T14:28:30.019Z,6.40
2022-11-29T14:31:01.531Z,6.50
2022-11-29T14:33:55.328Z,6.60
2022-11-29T14:36:51.293Z,6.40
2022-11-29T14:39:32.279Z,6.40
2022-11-29T14:42:16.825Z,6.50
2022-11-29T14:44:47.353Z,6.50
2022-11-29T14:47:25.097Z,6.50
2022-11-29T14:49:55.815Z,6.40
2022-11-29T14:52:29.395Z,6.50
2022-11-29T14:55:08.031Z,6.40
2022-11-29T14:58:15.754Z,6.40
2022-11-29T15:01:09.673Z,6.40
2022-11-29T15:03:49.420Z,6.40
2022-11-29T15:06:25.708Z,6.40
2022-11-29T15:09:02.741Z,6.40
2022-11-29T15:11:50.264Z,6.40
2022-11-29T15:14:24.300Z,6.40
2022-11-29T15:17:10.888Z,6.50
2022-11-29T15:20:07.997Z,6.40
2022-11-29T15:22:47.955Z,6.50
2022-11-29T15:25:20.488Z,6.40
2022-11-29T15:27:53.567Z,6.40
2022-11-29T15:30:28.843Z,6.40
2022-11-29T15:32:57.194Z,6.40
2022-11-29T15:35:26.938Z,6.50
2022-11-29T15:38:01.349Z,6.50
2022-11-29T15:40:35.405Z,6.60
2022-11-29T15:43:14.900Z,6.60
2022-11-29T15:45:48.155Z,6.70
2022-11-29T15:48:24.749Z,6.70
2022-11-29T15:51:06.913Z,6.80
2022-11-29T15:53:39.619Z,6.80
2022-11-29T15:56:15.358Z,6.90
2022-11-29T15:59:39.697Z,6.90
2022-11-29T16:03:11.914Z,6.90
2022-11-29T16:27:08.878Z,7.10
2022-11-29T16:29:39.564Z,7.10
2022-11-29T16:32:24.532Z,7.10
2022-11-29T16:34:53.028Z,7.20
2022-11-29T16:37:24.117Z,7.10
2022-11-29T16:39:54.109Z,7.10
2022-11-29T16:42:26.370Z,7.10
2022-11-29T16:45:23.563Z,7.10
2022-11-29T16:47:58.118Z,7.10
2022-11-29T16:50:27.204Z,7.10
2022-11-29T16:52:56.929Z,7.10
2022-11-29T16:55:25.328Z,7.00
2022-11-29T16:57:54.978Z,7.00
2022-11-29T17:00:29.891Z,7.00
2022-11-29T17:02:58.249Z,7.00
2022-11-29T17:05:26.538Z,7.00
2022-11-29T17:07:54.823Z,7.00
2022-11-29T17:10:25.704Z,7.10
2022-11-29T17:12:55.321Z,7.00
2022-11-29T17:15:23.288Z,6.90
2022-11-29T17:17:51.331Z,6.90
2022-11-29T17:20:19.596Z,6.80
2022-11-29T17:22:47.809Z,6.90
2022-11-29T17:25:16.274Z,6.90
2022-11-29T17:27:44.256Z,6.90
2022-11-29T17:30:14.731Z,7.00
2022-11-29T17:32:43.032Z,6.90
2022-11-29T17:35:11.116Z,6.90
2022-11-29T17:37:39.187Z,6.90
2022-11-29T17:40:08.483Z,6.90
2022-11-29T17:42:36.454Z,6.90
2022-11-29T17:45:04.844Z,6.90
2022-11-29T17:47:35.080Z,7.00
2022-11-29T17:50:03.195Z,7.00
2022-11-29T17:52:31.131Z,7.00
2022-11-29T17:54:59.026Z,7.00
2022-11-29T17:57:27.020Z,7.00
2022-11-29T17:59:55.373Z,7.00
2022-11-29T18:02:23.682Z,6.90
2022-11-29T18:04:53.186Z,6.90
2022-11-29T18:07:21.342Z,6.90
2022-11-29T18:09:49.417Z,6.90
2022-11-29T18:12:17.621Z,6.90
2022-11-29T18:14:45.728Z,7.00
2022-11-29T18:17:13.850Z,6.90
2022-11-29T18:19:42.391Z,6.80
2022-11-29T18:22:11.809Z,6.80
2022-11-29T18:24:43.392Z,6.80
2022-11-29T18:27:11.442Z,6.80
2022-11-29T18:29:39.559Z,6.80
2022-11-29T18:32:07.684Z,6.80
2022-11-29T18:34:35.685Z,6.80
2022-11-29T18:37:04.029Z,6.70
2022-11-29T18:39:33.764Z,6.70
2022-11-29T18:42:01.856Z,6.60
2022-11-29T18:44:30.303Z,6.50
2022-11-29T18:46:58.647Z,6.50
2022-11-29T18:49:26.644Z,6.50
2022-11-29T18:51:54.651Z,6.50
2022-11-29T18:54:22.747Z,6.50
2022-11-29T18:56:52.647Z,6.50
2022-11-29T18:59:22.060Z,6.50
2022-11-29T19:01:50.409Z,6.50
2022-11-29T19:04:20.090Z,6.50
2022-11-29T19:06:48.296Z,6.50
2022-11-29T19:09:19.270Z,6.50
2022-11-29T19:11:48.674Z,6.50
2022-11-29T19:14:18.597Z,6.50
2022-11-29T19:16:48.589Z,6.50
2022-11-29T19:19:18.578Z,6.50
2022-11-29T19:21:46.563Z,6.50
2022-11-29T19:24:17.580Z,6.60
2022-11-29T19:26:47.055Z,6.60
2022-11-29T19:29:15.606Z,6.50
2022-11-29T19:31:45.032Z,6.50
2022-11-29T19:34:13.099Z,6.50
2022-11-29T19:36:44.474Z,6.40
2022-11-29T19:39:15.354Z,6.40
2022-11-29T19:41:45.317Z,6.40
2022-11-29T19:44:14.195Z,6.40
2022-11-29T19:46:46.944Z,6.40
2022-11-29T19:49:15.531Z,6.30
2022-11-29T19:51:44.312Z,6.30
2022-11-29T19:54:12.907Z,6.30
2022-11-29T19:56:41.549Z,6.30
2022-11-29T19:59:09.816Z,6.30
2022-11-29T20:01:41.224Z,6.20
2022-11-29T20:04:12.853Z,6.40
2022-11-29T20:06:44.254Z,6.30
2022-11-29T20:09:13.404Z,6.30
2022-11-29T20:11:41.375Z,6.20
2022-11-29T20:14:11.431Z,6.20
2022-11-29T20:16:39.545Z,6.10
2022-11-29T20:19:13.752Z,6.20
2022-11-29T20:21:44.393Z,6.20
2022-11-29T20:24:14.215Z,6.20
2022-11-29T20:26:44.522Z,6.30
2022-11-29T20:29:13.621Z,6.20
2022-11-29T20:31:49.098Z,6.30
2022-11-29T20:34:20.116Z,6.30
2022-11-29T20:37:30.091Z,6.30
2022-11-29T20:40:02.648Z,6.30
2022-11-29T20:42:45.394Z,6.30
2022-11-29T20:45:15.063Z,6.30
2022-11-29T20:47:50.663Z,6.20
2022-11-29T20:50:23.811Z,6.30
2022-11-29T20:53:02.899Z,6.20
2022-11-29T20:55:30.975Z,6.20
2022-11-29T20:57:59.228Z,6.10
2022-11-29T21:00:27.332Z,6.10
2022-11-29T21:02:55.372Z,6.00
2022-11-29T21:05:24.772Z,6.00
2022-11-29T21:07:52.780Z,6.00
2022-11-29T21:10:21.864Z,6.00
2022-11-29T21:12:50.529Z,6.00
2022-11-29T21:15:19.470Z,6.10
2022-11-29T21:17:47.991Z,6.10
2022-11-29T21:20:19.989Z,6.10
2022-11-29T21:22:55.733Z,6.10
2022-11-29T21:25:35.708Z,6.10
2022-11-29T21:28:04.384Z,6.10
2022-11-29T21:30:32.715Z,6.10
2022-11-29T21:33:01.145Z,6.10
2022-11-29T21:35:29.138Z,6.10
2022-11-29T21:38:01.501Z,6.10
2022-11-29T21:40:29.727Z,6.10
2022-11-29T21:42:57.724Z,6.10
2022-11-29T21:45:25.655Z,6.10
2022-11-29T21:47:53.593Z,6.10
2022-11-29T21:50:21.616Z,6.10
2022-11-29T21:52:52.401Z,6.10
2022-11-29T21:55:21.790Z,6.10
2022-11-29T21:57:49.811Z,6.10
2022-11-29T22:00:18.742Z,6.10
2022-11-29T22:02:46.815Z,6.00
2022-11-29T22:05:15.098Z,5.90
2022-11-29T22:07:44.184Z,6.00
2022-11-29T22:10:13.680Z,5.90
2022-11-29T22:12:51.817Z,5.80
2022-11-29T22:15:24.811Z,5.80
2022-11-29T22:17:53.182Z,5.80
2022-11-29T22:20:21.306Z,5.80
2022-11-29T22:22:50.087Z,5.90
2022-11-29T22:25:18.288Z,5.90
2022-11-29T22:27:50.217Z,5.90
2022-11-29T22:30:18.676Z,6.10
2022-11-29T22:32:46.714Z,6.00
2022-11-29T22:35:14.758Z,5.90
2022-11-29T22:37:42.790Z,5.90
2022-11-29T22:40:11.282Z,5.70
2022-11-29T22:42:41.262Z,5.70
2022-11-29T22:45:11.812Z,5.70
2022-11-29T22:47:39.773Z,5.70
2022-11-29T22:50:08.602Z,5.80
2022-11-29T22:52:36.687Z,5.70
2022-11-29T22:55:05.431Z,5.60
2022-11-29T22:57:33.491Z,5.60
2022-11-29T23:00:01.425Z,5.60
2022-11-29T23:02:30.916Z,5.60
2022-11-29T23:04:58.908Z,5.60
2022-11-29T23:07:26.891Z,5.60
2022-11-29T23:09:55.899Z,5.70
2022-11-29T23:12:23.935Z,5.70
2022-11-29T23:14:56.415Z,5.80
2022-11-29T23:17:24.870Z,5.70
2022-11-29T23:19:54.233Z,5.70
2022-11-29T23:22:22.341Z,5.80
2022-11-29T23:24:50.342Z,5.70
2022-11-29T23:27:18.416Z,5.70
2022-11-29T23:29:46.418Z,5.70
2022-11-29T23:32:14.536Z,5.70
2022-11-29T23:34:42.579Z,5.60
2022-11-29T23:37:11.991Z,5.60
2022-11-29T23:39:40.020Z,5.60
2022-11-29T23:42:08.456Z,5.50
2022-11-29T23:44:36.344Z,5.50
2022-11-29T23:47:04.364Z,5.50
2022-11-29T23:49:35.382Z,5.40
2022-11-29T23:52:03.434Z,5.50
2022-11-29T23:54:32.864Z,5.50
2022-11-29T23:57:00.816Z,5.40
2022-11-29T23:59:28.749Z,5.40
